sensor_id;sensor_type;location;lat;lon;timestamp;pressure;altitude;pressure_sealevel;temperature;humidity
43298;BME280;28892;55.640;37.532;2023-02-18T00:02:11;98775.06;;;-8.10;65.11
43298;BME280;28892;55.640;37.532;2023-02-18T00:04:37;98756.50;;;-8.35;65.15
43298;BME280;28892;55.640;37.532;2023-02-18T00:07:03;98756.06;;;-8.80;66.60
43298;BME280;28892;55.640;37.532;2023-02-18T00:09:28;98763.56;;;-8.75;66.81
43298;BME280;28892;55.640;37.532;2023-02-18T00:11:54;98736.53;;;-8.65;66.53
43298;BME280;28892;55.640;37.532;2023-02-18T00:14:20;98764.81;;;-8.84;67.18
43298;BME280;28892;55.640;37.532;2023-02-18T00:16:46;98750.84;;;-8.78;67.13
43298;BME280;28892;55.640;37.532;2023-02-18T00:19:17;98746.28;;;-8.72;66.71
43298;BME280;28892;55.640;37.532;2023-02-18T00:21:44;98751.66;;;-8.59;66.57
43298;BME280;28892;55.640;37.532;2023-02-18T00:24:13;98743.88;;;-8.39;66.54
43298;BME280;28892;55.640;37.532;2023-02-18T00:26:40;98739.63;;;-8.23;65.65
43298;BME280;28892;55.640;37.532;2023-02-18T00:29:06;98736.69;;;-8.33;65.56
43298;BME280;28892;55.640;37.532;2023-02-18T00:31:33;98738.44;;;-8.16;65.14
43298;BME280;28892;55.640;37.532;2023-02-18T00:34:00;98744.69;;;-8.39;65.53
43298;BME280;28892;55.640;37.532;2023-02-18T00:36:27;98736.78;;;-8.17;65.06
43298;BME280;28892;55.640;37.532;2023-02-18T00:38:58;98723.66;;;-8.30;64.87
43298;BME280;28892;55.640;37.532;2023-02-18T00:41:26;98721.03;;;-8.82;66.12
43298;BME280;28892;55.640;37.532;2023-02-18T00:43:52;98726.56;;;-9.09;67.33
43298;BME280;28892;55.640;37.532;2023-02-18T00:46:19;98733.75;;;-8.79;67.07
43298;BME280;28892;55.640;37.532;2023-02-18T00:48:45;98719.84;;;-8.75;66.98
43298;BME280;28892;55.640;37.532;2023-02-18T00:51:11;98725.00;;;-8.75;66.46
43298;BME280;28892;55.640;37.532;2023-02-18T00:53:37;98720.94;;;-8.62;66.15
43298;BME280;28892;55.640;37.532;2023-02-18T00:56:07;98720.78;;;-8.59;66.03
43298;BME280;28892;55.640;37.532;2023-02-18T00:58:34;98715.88;;;-8.46;65.69
43298;BME280;28892;55.640;37.532;2023-02-18T01:01:04;98719.13;;;-8.60;65.58
43298;BME280;28892;55.640;37.532;2023-02-18T01:03:30;98710.50;;;-8.59;65.52
43298;BME280;28892;55.640;37.532;2023-02-18T01:05:56;98693.72;;;-8.85;66.10
43298;BME280;28892;55.640;37.532;2023-02-18T01:08:21;98681.59;;;-8.64;65.83
43298;BME280;28892;55.640;37.532;2023-02-18T01:10:53;98684.78;;;-8.76;65.79
43298;BME280;28892;55.640;37.532;2023-02-18T01:13:20;98678.25;;;-8.84;66.35
43298;BME280;28892;55.640;37.532;2023-02-18T01:15:46;98673.19;;;-8.50;65.54
43298;BME280;28892;55.640;37.532;2023-02-18T01:18:12;98667.66;;;-8.24;64.51
43298;BME280;28892;55.640;37.532;2023-02-18T01:20:40;98657.91;;;-8.18;64.05
43298;BME280;28892;55.640;37.532;2023-02-18T01:23:07;98655.69;;;-8.25;64.07
43298;BME280;28892;55.640;37.532;2023-02-18T01:25:33;98657.41;;;-8.60;64.43
43298;BME280;28892;55.640;37.532;2023-02-18T01:28:00;98640.41;;;-8.46;64.41
43298;BME280;28892;55.640;37.532;2023-02-18T01:30:27;98645.38;;;-9.33;65.76
43298;BME280;28892;55.640;37.532;2023-02-18T01:32:55;98637.38;;;-8.90;66.14
43298;BME280;28892;55.640;37.532;2023-02-18T01:35:21;98636.47;;;-8.89;65.26
43298;BME280;28892;55.640;37.532;2023-02-18T01:37:48;98625.00;;;-8.81;65.19
43298;BME280;28892;55.640;37.532;2023-02-18T01:40:20;98641.81;;;-9.11;65.53
43298;BME280;28892;55.640;37.532;2023-02-18T01:42:47;98622.34;;;-8.45;65.78
43298;BME280;28892;55.640;37.532;2023-02-18T01:50:43;98618.03;;;-8.97;64.51
43298;BME280;28892;55.640;37.532;2023-02-18T01:53:11;98612.16;;;-8.81;65.16
43298;BME280;28892;55.640;37.532;2023-02-18T01:55:39;98592.50;;;-8.65;64.74
43298;BME280;28892;55.640;37.532;2023-02-18T01:58:05;98608.53;;;-8.95;65.12
43298;BME280;28892;55.640;37.532;2023-02-18T02:00:34;98603.75;;;-8.85;65.48
43298;BME280;28892;55.640;37.532;2023-02-18T02:03:01;98590.97;;;-9.04;65.75
43298;BME280;28892;55.640;37.532;2023-02-18T02:05:31;98592.41;;;-8.99;65.89
43298;BME280;28892;55.640;37.532;2023-02-18T02:07:59;98567.31;;;-8.76;66.19
43298;BME280;28892;55.640;37.532;2023-02-18T02:11:21;98572.16;;;-8.87;66.75
43298;BME280;28892;55.640;37.532;2023-02-18T02:13:35;98580.72;;;-8.87;67.20
43298;BME280;28892;55.640;37.532;2023-02-18T02:46:47;98539.50;;;-8.85;67.61
43298;BME280;28892;55.640;37.532;2023-02-18T02:54:29;98527.09;;;-8.94;68.95
43298;BME280;28892;55.640;37.532;2023-02-18T02:59:48;98527.19;;;-8.96;68.80
43298;BME280;28892;55.640;37.532;2023-02-18T03:11:04;98517.19;;;-9.02;68.27
43298;BME280;28892;55.640;37.532;2023-02-18T03:16:25;98499.88;;;-8.81;67.90
43298;BME280;28892;55.640;37.532;2023-02-18T03:21:34;98496.66;;;-9.20;69.62
43298;BME280;28892;55.640;37.532;2023-02-18T03:26:42;98491.25;;;-8.98;68.15
43298;BME280;28892;55.640;37.532;2023-02-18T03:29:11;98490.28;;;-9.13;69.22
43298;BME280;28892;55.640;37.532;2023-02-18T03:31:40;98483.59;;;-8.64;68.43
43298;BME280;28892;55.640;37.532;2023-02-18T03:34:22;98474.34;;;-8.50;67.89
43298;BME280;28892;55.640;37.532;2023-02-18T03:36:51;98464.06;;;-9.02;68.84
43298;BME280;28892;55.640;37.532;2023-02-18T03:39:20;98478.72;;;-9.21;69.94
43298;BME280;28892;55.640;37.532;2023-02-18T03:41:48;98464.53;;;-9.11;69.89
43298;BME280;28892;55.640;37.532;2023-02-18T03:44:14;98449.97;;;-8.77;69.54
43298;BME280;28892;55.640;37.532;2023-02-18T03:46:41;98458.81;;;-8.33;66.75
43298;BME280;28892;55.640;37.532;2023-02-18T03:49:10;98459.09;;;-8.05;65.39
43298;BME280;28892;55.640;37.532;2023-02-18T03:51:36;98441.63;;;-7.84;64.80
43298;BME280;28892;55.640;37.532;2023-02-18T03:54:02;98442.31;;;-8.29;64.95
43298;BME280;28892;55.640;37.532;2023-02-18T03:56:28;98449.22;;;-8.79;67.04
43298;BME280;28892;55.640;37.532;2023-02-18T03:58:54;98440.38;;;-8.41;66.56
43298;BME280;28892;55.640;37.532;2023-02-18T04:01:19;98445.28;;;-8.52;65.97
43298;BME280;28892;55.640;37.532;2023-02-18T04:03:45;98430.44;;;-7.99;64.85
43298;BME280;28892;55.640;37.532;2023-02-18T04:06:11;98435.06;;;-8.38;65.19
43298;BME280;28892;55.640;37.532;2023-02-18T04:08:37;98436.63;;;-8.67;65.76
43298;BME280;28892;55.640;37.532;2023-02-18T04:11:05;98420.31;;;-8.18;65.06
43298;BME280;28892;55.640;37.532;2023-02-18T04:13:31;98414.91;;;-8.30;64.71
43298;BME280;28892;55.640;37.532;2023-02-18T04:15:57;98421.72;;;-8.29;65.58
43298;BME280;28892;55.640;37.532;2023-02-18T04:18:22;98406.28;;;-8.13;65.04
43298;BME280;28892;55.640;37.532;2023-02-18T04:20:48;98408.47;;;-8.87;66.42
43298;BME280;28892;55.640;37.532;2023-02-18T04:23:15;98400.88;;;-9.06;68.20
43298;BME280;28892;55.640;37.532;2023-02-18T04:25:41;98392.53;;;-9.27;69.62
43298;BME280;28892;55.640;37.532;2023-02-18T04:28:08;98393.69;;;-8.99;69.55
43298;BME280;28892;55.640;37.532;2023-02-18T04:30:38;98391.09;;;-8.65;69.15
43298;BME280;28892;55.640;37.532;2023-02-18T04:33:10;98381.66;;;-8.33;66.92
43298;BME280;28892;55.640;37.532;2023-02-18T04:35:36;98373.38;;;-8.07;65.74
43298;BME280;28892;55.640;37.532;2023-02-18T04:38:03;98376.47;;;-8.01;65.80
43298;BME280;28892;55.640;37.532;2023-02-18T04:40:31;98378.66;;;-8.25;66.02
43298;BME280;28892;55.640;37.532;2023-02-18T04:42:57;98383.97;;;-8.76;66.97
43298;BME280;28892;55.640;37.532;2023-02-18T04:45:23;98380.44;;;-8.91;68.30
43298;BME280;28892;55.640;37.532;2023-02-18T04:47:49;98375.75;;;-8.83;68.23
43298;BME280;28892;55.640;37.532;2023-02-18T04:50:15;98372.91;;;-8.62;67.75
43298;BME280;28892;55.640;37.532;2023-02-18T04:52:41;98361.59;;;-8.58;67.66
43298;BME280;28892;55.640;37.532;2023-02-18T04:55:07;98369.84;;;-8.37;67.52
43298;BME280;28892;55.640;37.532;2023-02-18T04:57:33;98370.19;;;-8.43;66.81
43298;BME280;28892;55.640;37.532;2023-02-18T04:59:58;98361.13;;;-8.18;66.79
43298;BME280;28892;55.640;37.532;2023-02-18T05:02:24;98357.81;;;-8.20;66.06
43298;BME280;28892;55.640;37.532;2023-02-18T05:04:50;98353.91;;;-8.44;66.23
43298;BME280;28892;55.640;37.532;2023-02-18T05:07:16;98343.88;;;-8.48;66.48
43298;BME280;28892;55.640;37.532;2023-02-18T05:09:41;98359.41;;;-8.34;66.74
43298;BME280;28892;55.640;37.532;2023-02-18T05:12:07;98361.19;;;-8.36;66.97
43298;BME280;28892;55.640;37.532;2023-02-18T05:14:33;98344.06;;;-8.05;65.66
43298;BME280;28892;55.640;37.532;2023-02-18T05:16:59;98335.41;;;-7.88;65.26
43298;BME280;28892;55.640;37.532;2023-02-18T05:19:24;98348.38;;;-7.89;64.99
43298;BME280;28892;55.640;37.532;2023-02-18T05:21:50;98344.22;;;-8.38;65.45
43298;BME280;28892;55.640;37.532;2023-02-18T05:24:16;98342.09;;;-8.00;65.11
43298;BME280;28892;55.640;37.532;2023-02-18T05:26:42;98345.19;;;-8.25;65.81
43298;BME280;28892;55.640;37.532;2023-02-18T05:29:07;98335.88;;;-8.58;66.49
43298;BME280;28892;55.640;37.532;2023-02-18T05:31:34;98322.59;;;-8.50;67.02
43298;BME280;28892;55.640;37.532;2023-02-18T05:33:59;98318.00;;;-7.98;65.97
43298;BME280;28892;55.640;37.532;2023-02-18T05:36:25;98315.84;;;-7.76;65.58
43298;BME280;28892;55.640;37.532;2023-02-18T05:38:51;98303.00;;;-7.61;64.07
43298;BME280;28892;55.640;37.532;2023-02-18T05:41:16;98306.16;;;-7.87;64.68
43298;BME280;28892;55.640;37.532;2023-02-18T05:43:42;98306.16;;;-7.87;65.13
43298;BME280;28892;55.640;37.532;2023-02-18T05:46:45;98281.75;;;-8.10;65.50
43298;BME280;28892;55.640;37.532;2023-02-18T05:49:11;98290.75;;;-8.03;65.42
43298;BME280;28892;55.640;37.532;2023-02-18T05:51:37;98278.94;;;-7.46;63.30
43298;BME280;28892;55.640;37.532;2023-02-18T05:54:03;98283.63;;;-7.97;63.99
43298;BME280;28892;55.640;37.532;2023-02-18T05:56:29;98263.09;;;-7.99;64.64
43298;BME280;28892;55.640;37.532;2023-02-18T05:58:55;98288.44;;;-8.07;64.54
43298;BME280;28892;55.640;37.532;2023-02-18T06:01:21;98267.41;;;-8.30;64.81
43298;BME280;28892;55.640;37.532;2023-02-18T06:03:47;98274.16;;;-8.28;65.33
43298;BME280;28892;55.640;37.532;2023-02-18T06:06:12;98276.63;;;-7.95;64.55
43298;BME280;28892;55.640;37.532;2023-02-18T06:08:38;98238.34;;;-8.16;63.93
43298;BME280;28892;55.640;37.532;2023-02-18T06:11:04;98260.44;;;-8.12;64.95
43298;BME280;28892;55.640;37.532;2023-02-18T06:13:30;98251.03;;;-7.82;64.37
43298;BME280;28892;55.640;37.532;2023-02-18T06:15:56;98246.53;;;-7.21;63.17
43298;BME280;28892;55.640;37.532;2023-02-18T06:18:22;98260.63;;;-7.26;61.91
43298;BME280;28892;55.640;37.532;2023-02-18T06:20:48;98237.41;;;-7.70;62.59
43298;BME280;28892;55.640;37.532;2023-02-18T06:23:14;98256.94;;;-7.37;62.58
43298;BME280;28892;55.640;37.532;2023-02-18T06:25:41;98250.38;;;-7.86;62.95
43298;BME280;28892;55.640;37.532;2023-02-18T06:28:07;98238.84;;;-8.25;64.73
43298;BME280;28892;55.640;37.532;2023-02-18T06:30:33;98243.56;;;-7.73;64.18
43298;BME280;28892;55.640;37.532;2023-02-18T06:33:01;98230.81;;;-7.60;63.91
43298;BME280;28892;55.640;37.532;2023-02-18T06:35:30;98226.75;;;-7.78;63.90
43298;BME280;28892;55.640;37.532;2023-02-18T06:37:58;98223.25;;;-7.77;63.24
43298;BME280;28892;55.640;37.532;2023-02-18T06:40:24;98222.22;;;-7.89;63.75
43298;BME280;28892;55.640;37.532;2023-02-18T06:42:52;98219.50;;;-7.57;64.04
43298;BME280;28892;55.640;37.532;2023-02-18T06:45:18;98212.22;;;-6.94;61.96
43298;BME280;28892;55.640;37.532;2023-02-18T06:47:44;98213.97;;;-7.51;63.15
43298;BME280;28892;55.640;37.532;2023-02-18T06:50:10;98206.88;;;-7.47;63.13
43298;BME280;28892;55.640;37.532;2023-02-18T06:52:45;98205.50;;;-7.53;64.20
43298;BME280;28892;55.640;37.532;2023-02-18T06:55:11;98205.94;;;-7.32;63.57
43298;BME280;28892;55.640;37.532;2023-02-18T06:57:38;98203.19;;;-7.28;64.02
43298;BME280;28892;55.640;37.532;2023-02-18T07:00:05;98188.94;;;-7.34;63.81
43298;BME280;28892;55.640;37.532;2023-02-18T07:02:31;98183.50;;;-7.30;63.21
43298;BME280;28892;55.640;37.532;2023-02-18T07:04:57;98177.31;;;-7.12;62.81
43298;BME280;28892;55.640;37.532;2023-02-18T07:07:23;98165.03;;;-7.65;63.40
43298;BME280;28892;55.640;37.532;2023-02-18T07:09:49;98169.63;;;-8.00;63.99
43298;BME280;28892;55.640;37.532;2023-02-18T07:12:15;98170.38;;;-7.54;63.75
43298;BME280;28892;55.640;37.532;2023-02-18T07:14:41;98158.84;;;-6.79;62.85
43298;BME280;28892;55.640;37.532;2023-02-18T07:17:07;98180.09;;;-7.45;62.26
43298;BME280;28892;55.640;37.532;2023-02-18T07:19:32;98166.75;;;-7.37;62.84
43298;BME280;28892;55.640;37.532;2023-02-18T07:21:58;98146.59;;;-7.03;62.48
43298;BME280;28892;55.640;37.532;2023-02-18T07:24:26;98158.53;;;-6.60;61.08
43298;BME280;28892;55.640;37.532;2023-02-18T07:26:52;98148.03;;;-6.84;61.21
43298;BME280;28892;55.640;37.532;2023-02-18T07:29:17;98147.00;;;-7.09;61.34
43298;BME280;28892;55.640;37.532;2023-02-18T07:31:43;98147.63;;;-7.05;62.15
43298;BME280;28892;55.640;37.532;2023-02-18T07:34:12;98132.63;;;-7.13;62.18
43298;BME280;28892;55.640;37.532;2023-02-18T07:36:38;98124.38;;;-7.18;62.76
43298;BME280;28892;55.640;37.532;2023-02-18T07:39:04;98128.75;;;-6.78;61.90
43298;BME280;28892;55.640;37.532;2023-02-18T07:41:32;98112.38;;;-6.64;61.20
43298;BME280;28892;55.640;37.532;2023-02-18T07:44:00;98117.16;;;-6.32;61.25
43298;BME280;28892;55.640;37.532;2023-02-18T07:46:26;98117.75;;;-6.54;61.63
43298;BME280;28892;55.640;37.532;2023-02-18T07:48:52;98114.53;;;-6.71;61.27
43298;BME280;28892;55.640;37.532;2023-02-18T07:51:18;98104.09;;;-6.82;62.49
43298;BME280;28892;55.640;37.532;2023-02-18T07:53:44;98104.09;;;-6.82;62.21
43298;BME280;28892;55.640;37.532;2023-02-18T07:56:10;98103.41;;;-6.46;61.91
43298;BME280;28892;55.640;37.532;2023-02-18T07:58:37;98105.78;;;-6.55;61.63
43298;BME280;28892;55.640;37.532;2023-02-18T08:01:09;98102.31;;;-6.28;61.65
43298;BME280;28892;55.640;37.532;2023-02-18T08:03:36;98094.63;;;-6.69;61.72
43298;BME280;28892;55.640;37.532;2023-02-18T08:06:04;98097.56;;;-6.22;61.56
43298;BME280;28892;55.640;37.532;2023-02-18T08:08:30;98077.00;;;-5.60;60.59
43298;BME280;28892;55.640;37.532;2023-02-18T08:10:59;98073.16;;;-5.30;58.77
43298;BME280;28892;55.640;37.532;2023-02-18T08:13:28;98069.59;;;-5.40;58.01
43298;BME280;28892;55.640;37.532;2023-02-18T08:15:55;98076.28;;;-5.62;59.36
43298;BME280;28892;55.640;37.532;2023-02-18T08:18:27;98053.97;;;-5.14;58.07
43298;BME280;28892;55.640;37.532;2023-02-18T08:20:53;98062.47;;;-5.01;57.56
43298;BME280;28892;55.640;37.532;2023-02-18T08:23:21;98051.09;;;-4.98;57.64
43298;BME280;28892;55.640;37.532;2023-02-18T08:25:54;98072.34;;;-4.70;57.60
43298;BME280;28892;55.640;37.532;2023-02-18T08:28:21;98063.41;;;-5.02;57.58
43298;BME280;28892;55.640;37.532;2023-02-18T08:30:50;98045.31;;;-5.26;58.15
43298;BME280;28892;55.640;37.532;2023-02-18T08:33:17;98054.16;;;-4.93;58.14
43298;BME280;28892;55.640;37.532;2023-02-18T08:35:43;98047.13;;;-4.91;57.99
43298;BME280;28892;55.640;37.532;2023-02-18T08:38:10;98042.66;;;-4.89;57.90
43298;BME280;28892;55.640;37.532;2023-02-18T08:40:36;98033.34;;;-4.92;58.10
43298;BME280;28892;55.640;37.532;2023-02-18T08:43:01;98051.25;;;-5.62;59.72
43298;BME280;28892;55.640;37.532;2023-02-18T08:45:27;98034.19;;;-5.64;60.37
43298;BME280;28892;55.640;37.532;2023-02-18T08:47:53;98018.16;;;-5.56;60.19
43298;BME280;28892;55.640;37.532;2023-02-18T08:50:19;98006.34;;;-5.23;60.35
43298;BME280;28892;55.640;37.532;2023-02-18T08:52:46;98025.53;;;-5.63;60.59
43298;BME280;28892;55.640;37.532;2023-02-18T08:55:12;98030.22;;;-5.44;61.14
43298;BME280;28892;55.640;37.532;2023-02-18T08:57:39;98006.50;;;-5.62;61.21
43298;BME280;28892;55.640;37.532;2023-02-18T09:00:15;98002.63;;;-5.08;60.63
43298;BME280;28892;55.640;37.532;2023-02-18T09:02:42;97995.50;;;-5.53;60.81
43298;BME280;28892;55.640;37.532;2023-02-18T09:05:08;97984.69;;;-4.98;59.65
43298;BME280;28892;55.640;37.532;2023-02-18T09:07:35;97993.22;;;-5.09;59.46
43298;BME280;28892;55.640;37.532;2023-02-18T09:10:08;97982.69;;;-5.30;60.59
43298;BME280;28892;55.640;37.532;2023-02-18T09:12:34;97968.50;;;-5.49;60.46
43298;BME280;28892;55.640;37.532;2023-02-18T09:15:01;97979.38;;;-5.32;61.33
43298;BME280;28892;55.640;37.532;2023-02-18T09:17:42;97983.00;;;-4.99;60.28
43298;BME280;28892;55.640;37.532;2023-02-18T09:20:15;97959.34;;;-5.06;60.47
43298;BME280;28892;55.640;37.532;2023-02-18T09:22:54;97965.09;;;-4.66;60.20
43298;BME280;28892;55.640;37.532;2023-02-18T09:25:25;97952.13;;;-4.32;58.70
43298;BME280;28892;55.640;37.532;2023-02-18T09:27:56;97936.25;;;-4.27;58.07
43298;BME280;28892;55.640;37.532;2023-02-18T09:30:25;97950.97;;;-4.39;58.99
43298;BME280;28892;55.640;37.532;2023-02-18T09:32:51;97934.63;;;-4.40;58.42
43298;BME280;28892;55.640;37.532;2023-02-18T09:35:17;97944.94;;;-4.97;59.72
43298;BME280;28892;55.640;37.532;2023-02-18T09:37:43;97927.81;;;-4.75;59.86
43298;BME280;28892;55.640;37.532;2023-02-18T09:40:31;97937.19;;;-4.97;60.28
43298;BME280;28892;55.640;37.532;2023-02-18T09:43:04;97924.59;;;-4.33;58.84
43298;BME280;28892;55.640;37.532;2023-02-18T09:45:31;97916.19;;;-4.02;57.88
43298;BME280;28892;55.640;37.532;2023-02-18T09:47:59;97904.63;;;-3.87;56.45
43298;BME280;28892;55.640;37.532;2023-02-18T09:50:30;97926.50;;;-3.47;56.55
43298;BME280;28892;55.640;37.532;2023-02-18T09:52:58;97910.91;;;-4.01;57.22
43298;BME280;28892;55.640;37.532;2023-02-18T09:55:30;97892.22;;;-4.16;58.13
43298;BME280;28892;55.640;37.532;2023-02-18T09:58:04;97897.09;;;-3.36;56.83
43298;BME280;28892;55.640;37.532;2023-02-18T10:00:35;97897.16;;;-2.74;53.96
43298;BME280;28892;55.640;37.532;2023-02-18T10:03:03;97877.53;;;-2.98;53.74
43298;BME280;28892;55.640;37.532;2023-02-18T10:05:32;97882.25;;;-2.82;53.80
43298;BME280;28892;55.640;37.532;2023-02-18T10:08:12;97867.63;;;-3.14;53.79
43298;BME280;28892;55.640;37.532;2023-02-18T10:10:44;97880.44;;;-2.91;53.88
43298;BME280;28892;55.640;37.532;2023-02-18T10:13:31;97867.16;;;-2.98;54.13
43298;BME280;28892;55.640;37.532;2023-02-18T10:15:58;97867.50;;;-3.12;53.77
43298;BME280;28892;55.640;37.532;2023-02-18T10:18:32;97853.09;;;-2.95;55.19
43298;BME280;28892;55.640;37.532;2023-02-18T10:21:08;97832.84;;;-2.19;53.20
43298;BME280;28892;55.640;37.532;2023-02-18T10:23:39;97838.72;;;-1.68;52.50
43298;BME280;28892;55.640;37.532;2023-02-18T10:26:11;97836.13;;;-1.78;50.98
43298;BME280;28892;55.640;37.532;2023-02-18T10:28:40;97831.03;;;-1.50;51.72
43298;BME280;28892;55.640;37.532;2023-02-18T10:31:15;97819.91;;;-0.57;51.10
43298;BME280;28892;55.640;37.532;2023-02-18T10:34:02;97822.19;;;-0.72;50.64
43298;BME280;28892;55.640;37.532;2023-02-18T10:37:00;97801.28;;;0.03;49.56
43298;BME280;28892;55.640;37.532;2023-02-18T10:50:45;97809.06;;;1.86;43.95
43298;BME280;28892;55.640;37.532;2023-02-18T10:53:33;97812.03;;;3.31;43.98
43298;BME280;28892;55.640;37.532;2023-02-18T11:03:15;97781.41;;;4.33;40.05
43298;BME280;28892;55.640;37.532;2023-02-18T11:06:52;97764.97;;;2.08;42.67
43298;BME280;28892;55.640;37.532;2023-02-18T11:09:53;97781.25;;;1.09;44.23
43298;BME280;28892;55.640;37.532;2023-02-18T11:15:17;97787.06;;;0.68;45.66
43298;BME280;28892;55.640;37.532;2023-02-18T11:17:53;97786.00;;;1.73;42.29
43298;BME280;28892;55.640;37.532;2023-02-18T11:20:33;97790.97;;;-0.53;46.89
43298;BME280;28892;55.640;37.532;2023-02-18T11:23:16;97775.06;;;-0.78;47.70
43298;BME280;28892;55.640;37.532;2023-02-18T11:26:22;97762.63;;;-0.20;48.11
43298;BME280;28892;55.640;37.532;2023-02-18T11:29:19;97745.16;;;0.17;46.47
43298;BME280;28892;55.640;37.532;2023-02-18T11:31:50;97760.16;;;-0.04;46.69
43298;BME280;28892;55.640;37.532;2023-02-18T11:34:20;97737.84;;;0.20;46.32
43298;BME280;28892;55.640;37.532;2023-02-18T11:36:48;97741.72;;;1.04;46.16
43298;BME280;28892;55.640;37.532;2023-02-18T11:41:48;97725.00;;;0.80;45.38
43298;BME280;28892;55.640;37.532;2023-02-18T11:49:22;97721.13;;;1.52;43.61
43298;BME280;28892;55.640;37.532;2023-02-18T11:51:49;97725.56;;;1.76;42.24
43298;BME280;28892;55.640;37.532;2023-02-18T11:54:22;97735.38;;;1.06;43.61
43298;BME280;28892;55.640;37.532;2023-02-18T11:57:04;97713.69;;;1.14;44.43
43298;BME280;28892;55.640;37.532;2023-02-18T11:59:36;97699.91;;;1.72;43.73
43298;BME280;28892;55.640;37.532;2023-02-18T12:02:25;97708.09;;;1.85;42.19
43298;BME280;28892;55.640;37.532;2023-02-18T12:05:20;97707.31;;;0.65;44.83
43298;BME280;28892;55.640;37.532;2023-02-18T12:08:16;97687.97;;;0.85;44.28
43298;BME280;28892;55.640;37.532;2023-02-18T12:10:48;97685.50;;;0.48;45.66
43298;BME280;28892;55.640;37.532;2023-02-18T12:13:26;97692.78;;;1.14;43.93
43298;BME280;28892;55.640;37.532;2023-02-18T12:24:08;97678.44;;;1.10;43.97
43298;BME280;28892;55.640;37.532;2023-02-18T12:29:19;97677.53;;;-0.30;46.27
43298;BME280;28892;55.640;37.532;2023-02-18T12:32:17;97678.22;;;-0.01;45.82
43298;BME280;28892;55.640;37.532;2023-02-18T12:37:35;97674.91;;;-0.30;46.14
43298;BME280;28892;55.640;37.532;2023-02-18T12:48:46;97665.03;;;-0.80;47.36
43298;BME280;28892;55.640;37.532;2023-02-18T12:54:13;97660.16;;;-1.39;48.75
43298;BME280;28892;55.640;37.532;2023-02-18T13:00:33;97650.69;;;-3.25;54.56
43298;BME280;28892;55.640;37.532;2023-02-18T13:11:41;97653.59;;;-3.49;55.38
43298;BME280;28892;55.640;37.532;2023-02-18T13:16:42;97625.81;;;-3.17;53.56
43298;BME280;28892;55.640;37.532;2023-02-18T13:21:51;97612.00;;;-3.38;54.01
43298;BME280;28892;55.640;37.532;2023-02-18T13:24:37;97626.34;;;-3.33;54.23
43298;BME280;28892;55.640;37.532;2023-02-18T13:27:30;97634.78;;;-3.82;55.88
43298;BME280;28892;55.640;37.532;2023-02-18T13:38:28;97619.94;;;-3.70;56.51
43298;BME280;28892;55.640;37.532;2023-02-18T13:40:59;97584.09;;;-3.65;55.30
43298;BME280;28892;55.640;37.532;2023-02-18T13:43:34;97593.97;;;-3.90;56.20
43298;BME280;28892;55.640;37.532;2023-02-18T13:46:08;97608.84;;;-3.41;54.56
43298;BME280;28892;55.640;37.532;2023-02-18T13:49:05;97597.56;;;-3.71;55.39
43298;BME280;28892;55.640;37.532;2023-02-18T13:51:43;97593.13;;;-4.00;55.74
43298;BME280;28892;55.640;37.532;2023-02-18T13:57:41;97585.53;;;-3.41;54.48
43298;BME280;28892;55.640;37.532;2023-02-18T14:00:36;97576.22;;;-3.54;54.62
43298;BME280;28892;55.640;37.532;2023-02-18T14:05:55;97571.00;;;-4.04;55.77
43298;BME280;28892;55.640;37.532;2023-02-18T14:08:36;97567.16;;;-3.79;55.49
43298;BME280;28892;55.640;37.532;2023-02-18T14:22:46;97558.97;;;-3.74;55.62
43298;BME280;28892;55.640;37.532;2023-02-18T14:27:49;97546.88;;;-3.64;55.05
43298;BME280;28892;55.640;37.532;2023-02-18T14:32:43;97543.72;;;-3.68;55.37
43298;BME280;28892;55.640;37.532;2023-02-18T14:38:36;97551.94;;;-3.62;55.72
43298;BME280;28892;55.640;37.532;2023-02-18T14:44:23;97551.31;;;-3.76;56.41
43298;BME280;28892;55.640;37.532;2023-02-18T14:47:09;97543.25;;;-3.93;56.80
43298;BME280;28892;55.640;37.532;2023-02-18T14:49:43;97553.25;;;-3.78;56.49
43298;BME280;28892;55.640;37.532;2023-02-18T14:55:10;97531.16;;;-3.72;56.19
43298;BME280;28892;55.640;37.532;2023-02-18T14:57:45;97539.75;;;-4.13;56.84
43298;BME280;28892;55.640;37.532;2023-02-18T15:00:27;97521.19;;;-4.18;57.04
43298;BME280;28892;55.640;37.532;2023-02-18T15:02:59;97537.13;;;-4.23;57.07
43298;BME280;28892;55.640;37.532;2023-02-18T15:05:30;97539.72;;;-4.23;56.91
43298;BME280;28892;55.640;37.532;2023-02-18T15:08:14;97504.59;;;-4.68;58.01
43298;BME280;28892;55.640;37.532;2023-02-18T15:10:52;97494.63;;;-4.72;59.27
43298;BME280;28892;55.640;37.532;2023-02-18T15:16:05;97514.28;;;-4.70;58.21
43298;BME280;28892;55.640;37.532;2023-02-18T15:19:11;97509.19;;;-5.02;59.88
43298;BME280;28892;55.640;37.532;2023-02-18T15:21:43;97504.41;;;-4.55;58.04
43298;BME280;28892;55.640;37.532;2023-02-18T15:24:31;97499.50;;;-4.27;57.24
43298;BME280;28892;55.640;37.532;2023-02-18T15:27:15;97510.47;;;-4.44;57.78
43298;BME280;28892;55.640;37.532;2023-02-18T15:29:48;97511.53;;;-4.47;57.92
43298;BME280;28892;55.640;37.532;2023-02-18T15:32:33;97497.88;;;-4.59;58.37
43298;BME280;28892;55.640;37.532;2023-02-18T15:35:15;97484.50;;;-4.23;57.40
43298;BME280;28892;55.640;37.532;2023-02-18T15:37:58;97500.69;;;-4.41;57.57
43298;BME280;28892;55.640;37.532;2023-02-18T15:40:54;97485.03;;;-4.60;57.79
43298;BME280;28892;55.640;37.532;2023-02-18T15:43:23;97477.56;;;-4.85;59.36
43298;BME280;28892;55.640;37.532;2023-02-18T15:45:56;97468.88;;;-5.05;60.13
43298;BME280;28892;55.640;37.532;2023-02-18T15:48:31;97464.50;;;-4.83;59.32
43298;BME280;28892;55.640;37.532;2023-02-18T15:51:02;97483.03;;;-4.26;57.87
43298;BME280;28892;55.640;37.532;2023-02-18T15:53:31;97485.72;;;-4.27;57.38
43298;BME280;28892;55.640;37.532;2023-02-18T15:56:05;97479.91;;;-4.19;57.10
43298;BME280;28892;55.640;37.532;2023-02-18T15:58:31;97467.53;;;-4.47;58.03
43298;BME280;28892;55.640;37.532;2023-02-18T16:01:03;97446.25;;;-4.51;58.06
43298;BME280;28892;55.640;37.532;2023-02-18T16:03:31;97462.78;;;-4.73;58.68
43298;BME280;28892;55.640;37.532;2023-02-18T16:11:47;97454.09;;;-4.31;57.72